Crayne, Kentucky
Current Conditions -  °F | °C
As of 3:15 AM on Monday 24 Nov 2014 (Local Time) from K5M9 Reporting Station
Overcast Overcast  
Wind Chill: 60°   Ceiling: 2200
Heat Index: 60°   Visibility: 10mi
Dew Point: 56°   Wind: 13mph
Humidity: 87%   Direction: 190°S
Pressure: 29.3"   Gusts: 21mph
Location:  37.27°N, 88.08°W
Report Text: K5M9 240915Z AUTO 19011G18KT 150V210 10SM BKN022 OVC027 15/13 A2930 RMK AO2 T01530131
Loading
Personal Weather Stations






























Interactive Weather Map New forecast layout! Learn more

10-Day Weather Forecast

Advertisements
Track Severe Weather on mobile